This is the latest recevied weather packets stored in our database for station/object Huerbel. If no packets are shown the sender has not sent any weather packets the latest 10 day(s).
| Time | Temp. | Humidity | Pressure | Rain* | Wind** | Luminosity | Snow |
|---|---|---|---|---|---|---|---|
| 1777681929 | 6.11° C | 71% | 1024.8 hPa | 0 mm | - | - | - |
| 1777680129 | 7.22° C | 67% | 1025.2 hPa | 0 mm | - | - | - |
| 1777678330 | 8.33° C | 64% | 1025.1 hPa | 0 mm | - | - | - |
| 1777676530 | 9.44° C | 60% | 1025.4 hPa | 0 mm | - | - | - |
| 1777674730 | 10.56° C | 58% | 1025.5 hPa | 0 mm | - | - | - |
| 1777671130 | 12.22° C | 51% | 1025.7 hPa | 0 mm | - | - | - |
| 1777669330 | 12.78° C | 50% | 1025.7 hPa | 0 mm | - | - | - |
| 1777667529 | 13.33° C | 49% | 1025.7 hPa | 0 mm | - | - | - |
| 1777665732 | 13.89° C | 47% | 1025.7 hPa | 0 mm | - | - | - |
| 1777663929 | 15° C | 45% | 1025.5 hPa | 0 mm | - | - | - |
| 1777662130 | 16.11° C | 42% | 1025.5 hPa | 0 mm | - | - | - |
| 1777660330 | 16.67° C | 40% | 1025.4 hPa | 0 mm | - | - | - |
| 1777658531 | 18.33° C | 34% | 1025.3 hPa | 0 mm | - | - | - |
| 1777656731 | 19.44° C | 34% | 1025.2 hPa | 0 mm | - | - | - |
| 1777654930 | 20.56° C | 32% | 1025.3 hPa | 0 mm | - | - | - |
| 1777653129 | 21.11° C | 28% | 1025.4 hPa | 0 mm | - | - | - |
| 1777651330 | 21.67° C | 27% | 1025.5 hPa | 0 mm | - | - | - |
| 1777649530 | 22.22° C | 27% | 1025.6 hPa | 0 mm | - | - | - |
| 1777647730 | 22.22° C | 30% | 1025.7 hPa | 0 mm | - | - | - |
| 1777645930 | 21.67° C | 28% | 1025.7 hPa | 0 mm | - | - | - |
| 1777644130 | 21.67° C | 27% | 1025.9 hPa | 0 mm | - | - | - |
| 1777642330 | 21.11° C | 27% | 1026.4 hPa | 0 mm | - | - | - |
| 1777640530 | 20.56° C | 26% | 1026.6 hPa | 0 mm | - | - | - |
| 1777638736 | 21.11° C | 26% | 1027 hPa | 0 mm | - | - | - |
| 1777636931 | 20° C | 29% | 1027.2 hPa | 0 mm | - | - | - |
* Rain since midnight (hover to see other rain measurements)
** Current wind speed in m/s (hover to see current wind gust speed)